Time;durP1;ratioP1;P1;durP2;ratioP2;P2;SDS_P1;SDS_P2;PMS_P1;PMS_P2;Temp;Humidity;BMP_temperature;BMP_pressure;BME280_temperature;BME280_humidity;BME280_pressure;Samples;Min_cycle;Max_cycle;Signal;HPM_P1;HPM_P2
2023/03/27 00:02:21;;;;;;;6.45;1.65;;;3.10;99.90;;;;;;5075512;28;20064;-92
2023/03/27 00:04:47;;;;;;;5.35;1.20;;;3.00;99.90;;;;;;5076159;28;20039;-91
2023/03/27 00:07:13;;;;;;;7.60;1.48;;;3.00;99.90;;;;;;5075230;28;20044;-91
2023/03/27 00:09:39;;;;;;;4.47;1.10;;;3.00;99.90;;;;;;5075894;28;20043;-92
2023/03/27 00:12:05;;;;;;;5.43;1.10;;;3.00;99.90;;;;;;5092933;28;20032;-92
2023/03/27 00:14:31;;;;;;;7.18;1.20;;;2.90;99.90;;;;;;5091822;28;20039;-92
2023/03/27 00:16:58;;;;;;;6.28;1.00;;;2.90;99.90;;;;;;5092608;28;20047;-92
2023/03/27 00:19:25;;;;;;;10.50;1.95;;;2.90;99.90;;;;;;5091206;28;20036;-91
2023/03/27 00:21:52;;;;;;;7.35;1.48;;;2.80;99.90;;;;;;5093049;28;20154;-91
2023/03/27 00:24:18;;;;;;;8.90;1.85;;;2.80;99.90;;;;;;5075994;28;20093;-90
2023/03/27 00:26:43;;;;;;;7.25;1.42;;;2.80;99.90;;;;;;5074895;28;20115;-91
2023/03/27 00:29:12;;;;;;;4.70;1.20;;;2.80;99.90;;;;;;5075839;28;20512;-91
2023/03/27 00:31:37;;;;;;;6.07;1.63;;;2.80;99.90;;;;;;5074898;28;20119;-91
2023/03/27 00:34:03;;;;;;;8.07;2.33;;;2.80;99.90;;;;;;5074247;28;20468;-91
2023/03/27 00:36:29;;;;;;;8.07;1.33;;;2.80;99.90;;;;;;5075200;28;20109;-92
2023/03/27 00:38:54;;;;;;;5.30;1.15;;;2.80;99.90;;;;;;5090519;28;20040;-92
2023/03/27 00:41:21;;;;;;;7.57;1.40;;;2.80;99.90;;;;;;5075494;28;20032;-91
2023/03/27 00:43:47;;;;;;;7.07;1.10;;;2.80;99.90;;;;;;5075204;28;20086;-92
2023/03/27 00:46:39;;;;;;;7.80;1.23;;;2.80;99.90;;;;;;5091573;28;20040;-91
2023/03/27 00:49:10;;;;;;;9.23;1.60;;;2.70;99.90;;;;;;5075049;28;20135;-91
2023/03/27 00:51:37;;;;;;;7.57;1.42;;;2.70;99.90;;;;;;5074790;28;20032;-91
2023/03/27 00:54:05;;;;;;;6.50;2.00;;;2.70;99.90;;;;;;5075551;28;20032;-92
2023/03/27 00:56:32;;;;;;;6.05;1.30;;;2.70;99.90;;;;;;5091394;28;20071;-92
2023/03/27 00:59:01;;;;;;;7.18;1.25;;;2.70;99.90;;;;;;5074513;28;20040;-91
2023/03/27 01:01:28;;;;;;;6.25;1.10;;;2.70;99.90;;;;;;5074776;28;20075;-91
2023/03/27 01:03:58;;;;;;;7.28;1.63;;;2.70;99.90;;;;;;5090702;28;20032;-91
2023/03/27 01:06:24;;;;;;;8.32;1.50;;;2.70;99.90;;;;;;5092191;28;20078;-92
2023/03/27 01:08:50;;;;;;;6.97;1.40;;;2.80;99.90;;;;;;5091039;28;20032;-91
2023/03/27 01:11:38;;;;;;;5.55;1.27;;;2.90;99.90;;;;;;5074119;28;20517;-91
2023/03/27 01:14:41;;;;;;;7.90;1.17;;;2.90;99.90;;;;;;5074432;28;20036;-91
2023/03/27 01:17:34;;;;;;;5.90;1.40;;;2.90;99.90;;;;;;5089800;28;20044;-91
2023/03/27 01:20:35;;;;;;;6.85;1.13;;;2.90;99.90;;;;;;5074755;28;20042;-92
2023/03/27 01:23:22;;;;;;;7.05;1.83;;;2.90;99.90;;;;;;5091006;28;20055;-91
2023/03/27 01:26:22;;;;;;;11.90;1.88;;;2.90;99.90;;;;;;5074765;28;20070;-91
2023/03/27 01:29:01;;;;;;;5.65;1.33;;;2.90;99.90;;;;;;5073378;28;20486;-91
2023/03/27 01:31:33;;;;;;;4.70;1.30;;;2.80;99.90;;;;;;5073557;28;20044;-91
2023/03/27 01:34:23;;;;;;;4.80;1.27;;;2.80;99.90;;;;;;5090348;28;20562;-91
2023/03/27 01:37:20;;;;;;;4.97;1.38;;;2.80;99.90;;;;;;5054220;28;20387;-92
2023/03/27 01:39:46;;;;;;;7.90;1.30;;;2.70;99.90;;;;;;5055695;28;20051;-91
2023/03/27 01:42:20;;;;;;;7.45;1.13;;;2.70;99.90;;;;;;5089990;28;20040;-91
2023/03/27 01:45:14;;;;;;;19.60;2.75;;;2.70;99.90;;;;;;5073945;28;20113;-91
2023/03/27 01:48:20;;;;;;;4.72;1.17;;;2.70;99.90;;;;;;5090332;28;20595;-91
2023/03/27 01:50:53;;;;;;;4.90;1.08;;;2.70;99.90;;;;;;5072783;28;20117;-91
2023/03/27 01:53:28;;;;;;;4.55;1.33;;;2.70;99.90;;;;;;5090051;28;20040;-91
2023/03/27 01:56:01;;;;;;;6.38;1.45;;;2.70;99.90;;;;;;5074245;28;20040;-91
2023/03/27 01:58:45;;;;;;;6.75;1.38;;;2.70;99.90;;;;;;5072548;28;20130;-91
2023/03/27 02:01:16;;;;;;;7.97;1.30;;;2.60;99.90;;;;;;5091196;28;20123;-91
2023/03/27 02:03:45;;;;;;;9.55;1.70;;;2.70;99.90;;;;;;5090973;28;20088;-91
2023/03/27 02:06:16;;;;;;;11.25;1.70;;;2.70;99.90;;;;;;5072989;28;20036;-91
2023/03/27 02:09:07;;;;;;;5.65;1.23;;;2.60;99.90;;;;;;5090874;28;20401;-91
2023/03/27 02:11:39;;;;;;;7.82;1.30;;;2.60;99.90;;;;;;5072662;28;20028;-91
2023/03/27 02:14:10;;;;;;;8.95;1.65;;;2.60;99.90;;;;;;5090090;28;20042;-91
2023/03/27 02:16:44;;;;;;;7.25;1.35;;;2.60;99.90;;;;;;5073060;28;20040;-91
2023/03/27 02:19:21;;;;;;;11.70;1.92;;;2.60;99.90;;;;;;5072760;28;20036;-92
2023/03/27 02:21:49;;;;;;;12.50;2.10;;;2.50;99.90;;;;;;5074026;28;20119;-91
2023/03/27 02:24:18;;;;;;;8.00;1.10;;;2.50;99.90;;;;;;5090205;28;20046;-92
2023/03/27 02:26:48;;;;;;;4.28;0.95;;;2.50;99.90;;;;;;5073981;28;20123;-91
2023/03/27 02:29:16;;;;;;;5.40;0.90;;;2.50;99.90;;;;;;5072977;28;20039;-91
2023/03/27 02:32:13;;;;;;;3.63;0.98;;;2.50;99.90;;;;;;5090074;28;20039;-91
2023/03/27 02:35:20;;;;;;;6.55;0.90;;;2.50;99.90;;;;;;5073748;28;20044;-91
2023/03/27 02:37:58;;;;;;;7.30;1.05;;;2.40;99.90;;;;;;5008931;28;20420;-91
2023/03/27 02:40:36;;;;;;;8.18;1.00;;;2.40;99.90;;;;;;5073459;28;20040;-91
2023/03/27 02:43:36;;;;;;;6.97;1.88;;;2.40;99.90;;;;;;5072921;28;20497;-91
2023/03/27 02:46:11;;;;;;;5.28;1.02;;;2.40;99.90;;;;;;5073281;28;20493;-91
2023/03/27 02:48:55;;;;;;;6.80;1.13;;;2.40;99.90;;;;;;5072693;28;20071;-91
2023/03/27 02:51:46;;;;;;;4.47;1.20;;;2.40;99.90;;;;;;5090789;28;20477;-91
2023/03/27 02:54:16;;;;;;;7.47;0.98;;;2.40;99.90;;;;;;5088521;28;20051;-91
2023/03/27 02:56:47;;;;;;;9.02;1.20;;;2.40;99.90;;;;;;5089609;28;20044;-92
2023/03/27 02:59:38;;;;;;;4.05;1.10;;;2.40;99.90;;;;;;5070998;28;20081;-91
2023/03/27 03:02:11;;;;;;;4.15;1.02;;;2.40;99.90;;;;;;5073451;28;20513;-92
2023/03/27 03:04:41;;;;;;;6.07;1.27;;;2.40;99.90;;;;;;5093379;28;20055;-91
2023/03/27 03:07:09;;;;;;;6.50;1.08;;;2.40;99.90;;;;;;5076515;28;20383;-92
2023/03/27 03:09:36;;;;;;;6.22;1.13;;;2.40;99.90;;;;;;5093025;28;20401;-91
2023/03/27 03:12:01;;;;;;;8.20;1.10;;;2.40;99.90;;;;;;5093699;28;20092;-91
2023/03/27 03:14:34;;;;;;;4.65;2.15;;;2.40;99.90;;;;;;5092795;28;20186;-90
2023/03/27 03:16:59;;;;;;;1.80;0.90;;;2.40;99.90;;;;;;5093032;28;20051;-91
2023/03/27 03:19:26;;;;;;;9.95;1.33;;;2.40;99.90;;;;;;5076190;28;20032;-90
2023/03/27 03:21:51;;;;;;;3.22;0.90;;;2.40;99.90;;;;;;5075338;28;20036;-91
2023/03/27 03:24:17;;;;;;;4.28;1.10;;;2.40;99.90;;;;;;5076537;28;20047;-90
2023/03/27 03:26:44;;;;;;;4.93;1.35;;;2.40;99.90;;;;;;5093435;28;20378;-91
2023/03/27 03:29:10;;;;;;;8.93;2.50;;;2.40;99.90;;;;;;5075663;28;20032;-90
2023/03/27 03:31:43;;;;;;;4.88;1.20;;;2.40;99.90;;;;;;5076689;28;20040;-91
2023/03/27 03:34:17;;;;;;;11.57;1.70;;;2.40;99.90;;;;;;5092770;28;20413;-91
2023/03/27 03:36:47;;;;;;;5.93;1.02;;;2.50;99.90;;;;;;5076410;28;20102;-91
2023/03/27 03:39:14;;;;;;;5.05;1.38;;;2.40;99.90;;;;;;5092470;28;20040;-90
2023/03/27 03:41:40;;;;;;;10.00;1.30;;;2.50;99.90;;;;;;5076041;28;20071;-91
2023/03/27 03:44:07;;;;;;;9.07;1.83;;;2.50;99.90;;;;;;5076037;28;20063;-91
2023/03/27 03:46:33;;;;;;;5.07;1.23;;;2.50;99.90;;;;;;5075820;28;20110;-90
2023/03/27 03:48:59;;;;;;;9.50;1.05;;;2.50;99.90;;;;;;5075341;28;20118;-91
2023/03/27 03:51:25;;;;;;;5.97;1.25;;;2.50;99.90;;;;;;5075949;28;20055;-91
2023/03/27 03:53:51;;;;;;;3.40;0.85;;;2.50;99.90;;;;;;5076651;28;20405;-90
2023/03/27 03:56:17;;;;;;;9.13;1.17;;;2.50;99.90;;;;;;5075755;28;20621;-91
2023/03/27 03:58:43;;;;;;;6.45;1.20;;;2.50;99.90;;;;;;5091737;28;20046;-90
2023/03/27 04:01:09;;;;;;;5.53;0.98;;;2.50;99.90;;;;;;5075994;28;20119;-91
2023/03/27 04:03:35;;;;;;;2.65;1.00;;;2.50;99.90;;;;;;5075390;28;20075;-90
2023/03/27 04:06:04;;;;;;;6.78;0.90;;;2.40;99.90;;;;;;5076113;28;20044;-90
2023/03/27 04:08:30;;;;;;;4.68;0.75;;;2.40;99.90;;;;;;5091695;28;20040;-90
2023/03/27 04:10:56;;;;;;;3.33;0.80;;;2.40;99.90;;;;;;5092724;28;20040;-90
2023/03/27 04:13:22;;;;;;;7.22;1.40;;;2.40;99.90;;;;;;5092846;28;20471;-90
2023/03/27 04:15:48;;;;;;;4.32;0.85;;;2.30;99.90;;;;;;5091390;28;20046;-91
2023/03/27 04:18:15;;;;;;;5.38;1.17;;;2.30;99.90;;;;;;5074983;28;20036;-90
2023/03/27 04:20:40;;;;;;;6.70;0.95;;;2.30;99.90;;;;;;5074670;28;20481;-91
2023/03/27 04:23:09;;;;;;;6.10;1.23;;;2.30;99.90;;;;;;5091322;28;20043;-91
2023/03/27 04:25:34;;;;;;;6.38;1.08;;;2.30;99.90;;;;;;5074578;28;20401;-90
2023/03/27 04:28:01;;;;;;;7.95;1.13;;;2.30;99.90;;;;;;5074246;28;20036;-90
2023/03/27 04:30:27;;;;;;;4.28;1.75;;;2.20;99.90;;;;;;5092297;28;20116;-90
2023/03/27 04:32:53;;;;;;;4.38;1.02;;;2.20;99.90;;;;;;5073796;28;20051;-91
2023/03/27 04:35:20;;;;;;;5.90;1.15;;;2.20;99.90;;;;;;5092277;28;20050;-91
2023/03/27 04:37:47;;;;;;;3.60;1.20;;;2.20;99.90;;;;;;5074333;28;20032;-91
2023/03/27 04:40:14;;;;;;;5.15;0.90;;;2.20;99.90;;;;;;5074409;28;20676;-91
2023/03/27 04:42:42;;;;;;;9.48;1.80;;;2.20;99.90;;;;;;5075289;28;20110;-90
2023/03/27 04:45:16;;;;;;;9.13;1.77;;;2.20;99.90;;;;;;5074677;28;20035;-90
2023/03/27 04:47:43;;;;;;;2.45;0.90;;;2.20;99.90;;;;;;5075106;28;20047;-91
2023/03/27 04:50:10;;;;;;;3.75;0.80;;;2.10;99.90;;;;;;5074868;28;20072;-90
2023/03/27 04:52:36;;;;;;;5.20;0.98;;;2.10;99.90;;;;;;5071178;28;20070;-91
2023/03/27 04:55:03;;;;;;;4.00;1.10;;;2.10;99.90;;;;;;5074990;28;20041;-90
2023/03/27 04:57:30;;;;;;;8.77;1.23;;;2.10;99.90;;;;;;5074330;28;20036;-91
2023/03/27 05:00:00;;;;;;;4.80;2.08;;;2.10;99.90;;;;;;5073645;28;20040;-90
2023/03/27 05:02:27;;;;;;;7.07;1.20;;;2.10;99.90;;;;;;5074367;28;20090;-91
2023/03/27 05:04:57;;;;;;;3.67;1.25;;;2.10;99.90;;;;;;5090347;28;20042;-90
2023/03/27 05:07:27;;;;;;;4.55;1.02;;;2.10;99.90;;;;;;5074320;28;20489;-91
2023/03/27 05:09:53;;;;;;;5.15;1.23;;;2.10;99.90;;;;;;5073689;28;20555;-90
2023/03/27 05:12:20;;;;;;;6.55;1.20;;;2.20;99.90;;;;;;5073702;28;20040;-90
2023/03/27 05:14:47;;;;;;;5.22;1.10;;;2.20;99.90;;;;;;5074331;28;20394;-91
2023/03/27 05:17:16;;;;;;;3.33;1.00;;;2.20;99.90;;;;;;5089986;28;20040;-90
2023/03/27 05:19:42;;;;;;;6.45;1.23;;;2.30;99.90;;;;;;5090340;28;20457;-91
2023/03/27 05:22:08;;;;;;;7.88;1.38;;;2.30;99.90;;;;;;5090793;28;20402;-90
2023/03/27 05:24:34;;;;;;;7.40;1.20;;;2.30;99.90;;;;;;5090817;28;20032;-90
2023/03/27 05:26:59;;;;;;;7.03;1.30;;;2.30;99.90;;;;;;5089825;28;20039;-90
2023/03/27 05:29:25;;;;;;;4.47;1.20;;;2.30;99.90;;;;;;5073069;28;20036;-91
2023/03/27 05:31:51;;;;;;;2.88;0.80;;;2.30;99.90;;;;;;5074311;28;20544;-91
2023/03/27 05:34:19;;;;;;;4.43;0.88;;;2.30;99.90;;;;;;5091453;28;20126;-91
2023/03/27 05:36:46;;;;;;;4.85;1.38;;;2.30;99.90;;;;;;5073774;28;20485;-90
2023/03/27 05:39:11;;;;;;;6.70;1.67;;;2.30;99.90;;;;;;5090634;28;20398;-90
2023/03/27 05:41:37;;;;;;;4.82;1.00;;;2.30;99.90;;;;;;5073580;28;20081;-90
2023/03/27 05:44:04;;;;;;;4.85;1.40;;;2.30;99.90;;;;;;5073328;28;20115;-91
2023/03/27 05:46:30;;;;;;;5.05;1.17;;;2.30;99.90;;;;;;5074101;28;20036;-90
2023/03/27 05:48:58;;;;;;;3.42;0.80;;;2.30;99.90;;;;;;5072479;28;20035;-91
2023/03/27 05:51:24;;;;;;;6.40;1.35;;;2.30;99.90;;;;;;5091468;28;20143;-91
2023/03/27 05:53:50;;;;;;;9.23;1.40;;;2.30;99.90;;;;;;5074169;28;20430;-91
2023/03/27 05:56:16;;;;;;;3.72;1.00;;;2.30;99.90;;;;;;5073049;28;20063;-91
2023/03/27 05:58:41;;;;;;;6.43;1.40;;;2.30;99.90;;;;;;5073613;28;20079;-90
2023/03/27 06:01:09;;;;;;;7.13;1.25;;;2.30;99.90;;;;;;5073121;28;20107;-91
2023/03/27 06:03:37;;;;;;;6.30;1.20;;;2.30;99.90;;;;;;5074381;28;20440;-91
2023/03/27 06:06:10;;;;;;;8.27;1.98;;;2.30;99.90;;;;;;5089789;28;20047;-90
2023/03/27 06:08:36;;;;;;;7.00;1.50;;;2.30;99.90;;;;;;5073422;28;20131;-91
2023/03/27 06:11:13;;;;;;;7.13;1.65;;;2.40;99.90;;;;;;5081687;28;20040;-91
2023/03/27 06:13:39;;;;;;;9.20;1.80;;;2.40;99.90;;;;;;5082378;28;20040;-91
2023/03/27 06:16:05;;;;;;;6.40;1.20;;;2.40;99.90;;;;;;5094836;28;20036;-91
2023/03/27 06:18:32;;;;;;;10.07;2.92;;;2.40;99.90;;;;;;5091013;28;20040;-90
2023/03/27 06:20:58;;;;;;;7.45;1.65;;;2.50;99.90;;;;;;5073511;28;20040;-90
2023/03/27 06:23:23;;;;;;;10.50;1.70;;;2.50;99.90;;;;;;5089583;28;20135;-91
2023/03/27 06:25:50;;;;;;;9.07;1.52;;;2.50;99.90;;;;;;5090149;28;20090;-90
2023/03/27 06:28:15;;;;;;;10.65;1.95;;;2.60;99.90;;;;;;5072143;28;20132;-90
2023/03/27 06:30:41;;;;;;;7.82;1.15;;;2.70;99.90;;;;;;5072141;28;20127;-91
2023/03/27 06:33:08;;;;;;;6.10;1.35;;;2.70;99.90;;;;;;5071802;28;20498;-91
2023/03/27 06:35:34;;;;;;;6.07;1.63;;;2.70;99.90;;;;;;5071434;28;20077;-95
2023/03/27 06:38:01;;;;;;;7.38;1.38;;;2.80;99.90;;;;;;5074090;28;20044;-90
2023/03/27 06:40:28;;;;;;;10.15;1.85;;;2.90;99.90;;;;;;5075712;28;20075;-90
2023/03/27 06:43:00;;;;;;;7.68;1.23;;;3.00;99.90;;;;;;5092475;28;20037;-91
2023/03/27 06:45:29;;;;;;;6.30;1.23;;;3.20;99.90;;;;;;5066741;28;20028;-92
2023/03/27 06:48:01;;;;;;;5.40;0.90;;;3.30;99.90;;;;;;5087593;28;20043;-91
2023/03/27 06:50:28;;;;;;;5.75;0.80;;;3.40;99.90;;;;;;5072139;28;20217;-90
2023/03/27 06:52:54;;;;;;;4.82;0.88;;;3.50;99.90;;;;;;5109651;28;20036;-90
2023/03/27 06:55:22;;;;;;;3.05;0.77;;;3.50;99.90;;;;;;5076293;28;20139;-91
2023/03/27 06:57:50;;;;;;;9.25;1.00;;;3.70;99.90;;;;;;5076379;28;20042;-92
2023/03/27 07:00:18;;;;;;;4.70;1.25;;;3.80;99.90;;;;;;5092620;28;20413;-92
2023/03/27 07:02:57;;;;;;;4.65;0.55;;;3.80;99.90;;;;;;5092796;28;20036;-92
2023/03/27 07:05:25;;;;;;;5.10;0.88;;;3.90;99.90;;;;;;5092965;28;20077;-91
2023/03/27 07:07:51;;;;;;;4.07;0.77;;;4.00;99.90;;;;;;5076430;28;20044;-91
2023/03/27 07:10:17;;;;;;;2.42;0.52;;;4.10;99.90;;;;;;5076100;28;20131;-92
2023/03/27 07:12:50;;;;;;;6.55;0.90;;;4.10;99.90;;;;;;5076553;28;20051;-91
2023/03/27 07:15:17;;;;;;;6.63;1.00;;;4.20;99.90;;;;;;5076792;28;20073;-91
2023/03/27 07:17:50;;;;;;;4.75;1.13;;;4.20;99.90;;;;;;5075748;28;20055;-91
2023/03/27 07:20:16;;;;;;;;;;;4.20;99.90;;;;;;5076701;28;20390;-92
2023/03/27 07:22:42;;;;;;;5.40;0.88;;;4.30;99.90;;;;;;5077045;28;20383;-91
2023/03/27 07:25:09;;;;;;;7.97;1.10;;;4.30;99.90;;;;;;5073360;28;20578;-92
2023/03/27 07:27:36;;;;;;;4.65;0.85;;;4.30;99.90;;;;;;5081961;28;20040;-92
2023/03/27 07:30:02;;;;;;;4.10;0.60;;;4.30;99.90;;;;;;5064861;28;20077;-91
2023/03/27 07:32:31;;;;;;;3.03;0.73;;;4.30;99.90;;;;;;5064603;28;20048;-93
2023/03/27 07:34:57;;;;;;;7.70;1.38;;;4.30;99.90;;;;;;5097978;28;20035;-92
2023/03/27 07:37:23;;;;;;;5.38;1.20;;;4.40;99.90;;;;;;5092985;28;20074;-92
2023/03/27 07:39:49;;;;;;;3.47;0.70;;;4.40;99.90;;;;;;5076371;28;20422;-92
2023/03/27 07:42:14;;;;;;;5.28;1.27;;;4.40;99.90;;;;;;5075607;28;20564;-93
2023/03/27 07:44:40;;;;;;;4.05;0.88;;;4.50;99.90;;;;;;5092158;28;20042;-92
2023/03/27 07:47:06;;;;;;;5.10;1.00;;;4.60;99.90;;;;;;5074400;28;20051;-92
2023/03/27 07:49:31;;;;;;;7.03;1.35;;;4.70;99.90;;;;;;5091914;28;20044;-92
2023/03/27 07:51:59;;;;;;;9.45;1.23;;;4.80;99.90;;;;;;5076532;28;20044;-93
2023/03/27 07:54:25;;;;;;;5.80;1.00;;;4.90;99.90;;;;;;5075182;28;20520;-93
2023/03/27 07:56:52;;;;;;;7.13;0.98;;;5.00;99.90;;;;;;5075788;28;20136;-93
2023/03/27 07:59:19;;;;;;;3.03;0.70;;;5.00;99.90;;;;;;5075069;28;20051;-92
2023/03/27 08:01:47;;;;;;;5.72;0.88;;;5.10;99.90;;;;;;5092552;28;20035;-93
2023/03/27 08:04:14;;;;;;;6.03;1.10;;;5.20;99.90;;;;;;5076313;28;20036;-93
2023/03/27 08:06:39;;;;;;;4.65;1.65;;;5.30;99.90;;;;;;5075374;28;20040;-94
2023/03/27 08:09:05;;;;;;;3.60;0.85;;;5.40;99.90;;;;;;5076540;28;20127;-93
2023/03/27 08:11:31;;;;;;;4.50;1.25;;;5.50;99.90;;;;;;5092676;28;20642;-93
2023/03/27 08:13:57;;;;;;;8.15;1.60;;;5.60;99.90;;;;;;5091995;28;20118;-93
2023/03/27 08:16:26;;;;;;;4.70;1.10;;;5.60;99.90;;;;;;5075693;28;20089;-93
2023/03/27 08:18:52;;;;;;;7.03;1.17;;;5.70;99.90;;;;;;5075452;28;20048;-93
2023/03/27 08:21:18;;;;;;;5.20;1.17;;;5.80;99.90;;;;;;5076427;28;20059;-94
2023/03/27 08:23:44;;;;;;;7.07;1.40;;;5.90;99.90;;;;;;5075169;28;20115;-92
2023/03/27 08:26:10;;;;;;;9.30;1.33;;;6.00;99.90;;;;;;5075494;28;20036;-92
2023/03/27 08:28:36;;;;;;;7.65;1.17;;;6.10;99.90;;;;;;5075189;28;20051;-92
2023/03/27 08:31:08;;;;;;;5.93;1.05;;;6.30;99.90;;;;;;5075034;28;20044;-93
2023/03/27 08:33:35;;;;;;;7.70;1.58;;;6.40;99.90;;;;;;5075129;28;20047;-92
2023/03/27 08:36:01;;;;;;;6.20;1.33;;;6.30;99.90;;;;;;5091598;28;20489;-93
2023/03/27 08:38:28;;;;;;;4.50;0.90;;;6.10;99.90;;;;;;5074585;28;20516;-93
2023/03/27 08:40:57;;;;;;;2.60;0.57;;;6.00;99.90;;;;;;5085385;28;20082;-93
2023/03/27 08:43:35;;;;;;;8.02;0.93;;;5.80;99.90;;;;;;5066163;28;20565;-93
2023/03/27 08:46:30;;;;;;;2.70;0.52;;;5.60;99.90;;;;;;5084313;28;20033;-93
2023/03/27 08:49:17;;;;;;;6.07;0.95;;;5.40;99.90;;;;;;5091462;28;20048;-94
2023/03/27 08:51:52;;;;;;;5.13;1.60;;;5.30;99.90;;;;;;5093845;28;20035;-93
2023/03/27 08:54:22;;;;;;;3.08;0.65;;;5.20;99.90;;;;;;5080716;28;20592;-92
2023/03/27 08:56:49;;;;;;;6.47;0.90;;;5.20;99.90;;;;;;5079434;28;20398;-93
2023/03/27 08:59:17;;;;;;;4.20;0.98;;;5.30;99.90;;;;;;5081542;28;20110;-94
2023/03/27 09:01:52;;;;;;;7.63;1.15;;;5.50;99.90;;;;;;5064557;28;20036;-94
2023/03/27 09:04:38;;;;;;;3.58;0.73;;;5.60;99.90;;;;;;5081511;28;20036;-94
2023/03/27 09:07:07;;;;;;;7.50;1.05;;;5.80;99.90;;;;;;5064228;28;20107;-94
2023/03/27 09:09:52;;;;;;;5.53;1.23;;;5.90;99.90;;;;;;5079939;28;20058;-93
2023/03/27 09:12:30;;;;;;;7.38;1.88;;;6.10;99.90;;;;;;5072014;28;20044;-94
2023/03/27 09:15:11;;;;;;;6.85;1.63;;;6.30;99.90;;;;;;5088245;28;20052;-94
2023/03/27 09:18:03;;;;;;;5.05;1.20;;;6.50;99.90;;;;;;5063333;28;20035;-93
2023/03/27 09:20:42;;;;;;;9.20;1.10;;;6.60;99.90;;;;;;5071456;28;20055;-94
2023/03/27 09:23:25;;;;;;;4.15;1.38;;;6.80;99.90;;;;;;5081838;28;20493;-93
2023/03/27 09:25:59;;;;;;;5.32;0.93;;;6.90;99.90;;;;;;5080932;28;20028;-94
2023/03/27 09:28:34;;;;;;;3.88;1.20;;;7.00;99.90;;;;;;5068348;28;20036;-94
2023/03/27 09:31:21;;;;;;;8.27;0.93;;;7.20;99.90;;;;;;5076306;28;20040;-93
2023/03/27 09:33:47;;;;;;;4.22;1.30;;;7.40;99.90;;;;;;5073035;28;20386;-94
2023/03/27 09:36:12;;;;;;;5.45;1.00;;;7.60;99.90;;;;;;5088558;28;20100;-94
2023/03/27 09:38:43;;;;;;;6.07;1.38;;;7.80;99.90;;;;;;5071165;28;20149;-93
2023/03/27 09:41:17;;;;;;;3.22;0.90;;;7.90;99.90;;;;;;5081439;28;20036;-93
2023/03/27 09:44:14;;;;;;;10.63;1.40;;;8.10;99.90;;;;;;5071303;28;20122;-94
2023/03/27 09:46:43;;;;;;;7.72;1.05;;;8.20;99.90;;;;;;5084915;28;20040;-94
2023/03/27 09:49:17;;;;;;;5.28;1.40;;;8.20;99.90;;;;;;5071478;28;20047;-94
2023/03/27 09:51:51;;;;;;;3.58;0.77;;;7.90;99.90;;;;;;5087046;28;20427;-94
2023/03/27 09:54:20;;;;;;;2.80;0.70;;;7.70;99.90;;;;;;5071519;28;20550;-94
2023/03/27 09:57:00;;;;;;;3.53;0.77;;;7.60;99.90;;;;;;5070194;28;20039;-94
2023/03/27 09:59:39;;;;;;;3.30;0.60;;;7.40;99.90;;;;;;5073469;28;20047;-94
2023/03/27 10:02:28;;;;;;;3.17;0.63;;;7.40;99.90;;;;;;5073088;28;20100;-94
2023/03/27 10:05:16;;;;;;;2.85;1.00;;;7.50;99.90;;;;;;5060231;28;20401;-94
2023/03/27 10:07:42;;;;;;;3.75;0.60;;;7.60;99.90;;;;;;5073870;28;20101;-94
2023/03/27 10:10:14;;;;;;;2.35;0.52;;;7.80;99.90;;;;;;5073245;28;20101;-95
2023/03/27 10:12:41;;;;;;;3.40;0.63;;;8.00;99.90;;;;;;5073553;28;20040;-95
2023/03/27 10:15:35;;;;;;;5.82;0.68;;;8.10;99.90;;;;;;5073400;28;20047;-94
2023/03/27 10:18:22;;;;;;;4.07;0.70;;;8.30;99.90;;;;;;5061863;28;20055;-94
2023/03/27 10:20:53;;;;;;;6.40;1.30;;;8.50;99.90;;;;;;5071927;28;20097;-95
2023/03/27 10:23:28;;;;;;;4.47;0.60;;;8.60;99.90;;;;;;5082442;28;20490;-95
2023/03/27 10:26:00;;;;;;;3.45;1.42;;;8.70;99.70;;;;;;5073795;28;20036;-94
2023/03/27 10:28:35;;;;;;;3.88;0.73;;;8.90;99.90;;;;;;5089616;28;20101;-94
2023/03/27 10:31:02;;;;;;;4.68;0.98;;;9.00;99.90;;;;;;5073478;28;20089;-95
2023/03/27 10:33:32;;;;;;;5.15;1.02;;;9.20;99.90;;;;;;5086926;28;20618;-96
2023/03/27 10:35:59;;;;;;;2.15;0.68;;;9.40;99.40;;;;;;5063720;28;20036;-94
2023/03/27 10:38:26;;;;;;;5.05;0.77;;;9.60;99.80;;;;;;5063914;28;20409;-94
2023/03/27 10:40:54;;;;;;;6.97;1.83;;;9.70;98.50;;;;;;5080572;28;20032;-95
2023/03/27 10:43:36;;;;;;;3.88;1.00;;;9.80;95.10;;;;;;5097696;28;20412;-95
2023/03/27 10:46:06;;;;;;;4.70;1.65;;;9.90;91.40;;;;;;5083696;28;20040;-95
2023/03/27 10:48:47;;;;;;;4.00;0.90;;;10.00;93.30;;;;;;5063183;28;20036;-94
2023/03/27 10:51:32;;;;;;;9.98;1.48;;;9.90;92.00;;;;;;5079994;28;20124;-94
2023/03/27 10:54:06;;;;;;;6.50;1.08;;;9.70;91.40;;;;;;5067359;28;20032;-94
2023/03/27 10:56:50;;;;;;;5.35;0.93;;;9.60;92.50;;;;;;5077729;28;20043;-95
2023/03/27 10:59:30;;;;;;;4.47;0.82;;;9.70;92.10;;;;;;5087266;28;20520;-94
2023/03/27 11:02:01;;;;;;;5.07;0.90;;;9.60;91.20;;;;;;5064330;28;20032;-95
2023/03/27 11:04:42;;;;;;;5.18;1.00;;;9.50;91.40;;;;;;5063679;28;20036;-95
2023/03/27 11:07:25;;;;;;;7.00;1.60;;;9.20;90.80;;;;;;5081638;28;20627;-94
2023/03/27 11:10:01;;;;;;;6.43;0.98;;;9.10;91.20;;;;;;5085955;28;20036;-94
2023/03/27 11:12:29;;;;;;;5.03;0.82;;;9.10;92.30;;;;;;5071166;28;20386;-94
2023/03/27 11:15:06;;;;;;;4.53;1.02;;;9.30;93.30;;;;;;5072561;28;20070;-95
2023/03/27 11:18:05;;;;;;;4.25;0.60;;;9.60;93.50;;;;;;5072304;28;20523;-94
2023/03/27 11:20:35;;;;;;;4.05;0.82;;;9.90;92.50;;;;;;5072913;28;20083;-94
2023/03/27 11:23:12;;;;;;;5.18;0.82;;;10.20;92.60;;;;;;5089581;28;20040;-95
2023/03/27 11:25:45;;;;;;;7.15;1.00;;;10.20;90.10;;;;;;5076656;28;20047;-95
2023/03/27 11:28:34;;;;;;;6.28;1.13;;;10.10;88.30;;;;;;5092168;28;20040;-94
2023/03/27 11:31:12;;;;;;;4.82;1.05;;;10.10;86.20;;;;;;5076913;28;20036;-95
2023/03/27 11:33:41;;;;;;;3.17;0.73;;;10.30;84.50;;;;;;5093368;28;20075;-94
2023/03/27 11:36:33;;;;;;;5.25;0.88;;;10.30;83.30;;;;;;5076996;28;20096;-94
2023/03/27 11:39:22;;;;;;;7.40;1.52;;;10.40;80.20;;;;;;5075800;28;20032;-94
2023/03/27 11:42:01;;;;;;;6.03;0.95;;;10.50;81.30;;;;;;5093890;28;20039;-92
2023/03/27 11:44:29;;;;;;;3.63;0.90;;;10.50;75.90;;;;;;5092922;28;20054;-92
2023/03/27 11:47:17;;;;;;;3.10;0.70;;;10.50;78.40;;;;;;5077265;28;20024;-92
2023/03/27 11:49:50;;;;;;;6.10;0.98;;;10.70;77.30;;;;;;5076411;28;20043;-92
2023/03/27 11:52:35;;;;;;;5.60;1.00;;;10.80;77.90;;;;;;5110458;28;20047;-92
2023/03/27 11:55:12;;;;;;;7.18;1.23;;;10.80;77.80;;;;;;5077043;28;20393;-92
2023/03/27 11:58:16;;;;;;;5.50;0.75;;;10.90;77.70;;;;;;5092793;28;20036;-92
2023/03/27 12:00:48;;;;;;;4.13;0.90;;;11.10;75.80;;;;;;5062887;28;20117;-91
2023/03/27 12:03:24;;;;;;;2.78;0.80;;;11.40;77.00;;;;;;5076400;28;20028;-92
2023/03/27 12:06:17;;;;;;;8.43;1.42;;;11.70;77.10;;;;;;5076922;28;20098;-93
2023/03/27 12:09:05;;;;;;;3.63;0.60;;;11.80;74.00;;;;;;5092303;28;20043;-93
2023/03/27 12:11:37;;;;;;;5.25;0.85;;;11.70;75.30;;;;;;5093262;28;20048;-92
2023/03/27 12:14:18;;;;;;;6.25;1.40;;;11.20;75.70;;;;;;5091947;28;20044;-92
2023/03/27 12:17:11;;;;;;;3.40;0.57;;;10.80;76.20;;;;;;5092753;28;20046;-92
2023/03/27 12:19:50;;;;;;;3.78;0.60;;;10.40;77.30;;;;;;5091686;28;20036;-92
2023/03/27 12:22:41;;;;;;;2.20;0.47;;;10.50;78.80;;;;;;5075981;28;20040;-93
2023/03/27 12:25:46;;;;;;;6.13;0.98;;;10.80;79.00;;;;;;5075824;28;20081;-92
2023/03/27 12:28:39;;;;;;;2.55;0.82;;;11.30;78.60;;;;;;4975546;28;20145;-92
2023/03/27 12:31:04;;;;;;;3.75;0.75;;;11.60;78.00;;;;;;4981306;28;20042;-93
2023/03/27 12:33:57;;;;;;;4.55;0.80;;;11.90;77.00;;;;;;4994927;28;20056;-92
2023/03/27 12:36:25;;;;;;;2.13;0.63;;;12.10;74.90;;;;;;4994313;28;20056;-92
2023/03/27 12:38:53;;;;;;;5.90;1.10;;;12.40;75.20;;;;;;4976920;28;20108;-93
2023/03/27 12:41:28;;;;;;;4.20;0.90;;;12.60;74.70;;;;;;4979186;28;20068;-92
2023/03/27 12:44:02;;;;;;;6.30;0.90;;;12.60;73.70;;;;;;5001768;28;20398;-93
2023/03/27 12:46:34;;;;;;;5.45;0.82;;;12.40;73.60;;;;;;4979248;28;20141;-92
2023/03/27 12:49:06;;;;;;;3.10;0.70;;;11.70;73.90;;;;;;4978419;28;20046;-92
2023/03/27 12:51:36;;;;;;;4.03;0.93;;;11.20;75.60;;;;;;4994735;28;20499;-94
2023/03/27 12:54:25;;;;;;;5.72;1.00;;;10.80;75.70;;;;;;4978661;28;20062;-93
2023/03/27 12:57:12;;;;;;;4.60;0.55;;;10.70;76.00;;;;;;4973418;28;20038;-92
2023/03/27 12:59:47;;;;;;;7.22;1.13;;;10.50;76.70;;;;;;4978535;28;20041;-92
2023/03/27 13:02:40;;;;;;;4.15;1.17;;;10.50;78.60;;;;;;4991745;28;20046;-91
2023/03/27 13:05:18;;;;;;;4.90;0.93;;;10.80;80.30;;;;;;5049254;28;20059;-91
2023/03/27 13:07:55;;;;;;;6.65;1.60;;;11.30;81.40;;;;;;5086646;28;20039;-93
2023/03/27 13:10:52;;;;;;;5.15;0.77;;;11.70;79.80;;;;;;5092917;28;20070;-92
2023/03/27 13:13:53;;;;;;;4.35;0.95;;;12.10;77.90;;;;;;5075087;28;20044;-93
2023/03/27 13:16:36;;;;;;;7.03;1.30;;;12.20;72.90;;;;;;5075426;28;20066;-93
2023/03/27 13:19:11;;;;;;;;;;;12.40;75.20;;;;;;5084987;28;20040;-93
2023/03/27 13:22:03;;;;;;;8.90;1.73;;;12.70;74.70;;;;;;5082016;28;19915;-94
2023/03/27 13:24:43;;;;;;;8.68;1.23;;;13.30;75.80;;;;;;5097801;28;20036;-92
2023/03/27 13:27:18;;;;;;;8.70;1.10;;;13.80;72.60;;;;;;5066499;28;20037;-92